Pagina principale
METAR-TAF:

METAR-TAF

Aeroporti :

Aigen im Ennstal, Austria

latitudine: 47-32N, longitudine: 014-08E, altezza: 638 m

METAR: mancante

Ora: 16:00 (14:00 UTC)

Previsione

Il bollettino è stato emesso 2 ore e 45 minuti fa, alle 11:15 UTC
Previsione valida dal 27 alle 12 UTC al 27 alle 21 UTC
Vento 3 kt da direzioni variabili
Visibilità 10 km o più
Poco nuvoloso ad un'altezza di 3000 ft
Nubi sparse ad un'altezza di 5000 ft
Temporaneamente
dal 27 alle 12 UTC al 27 alle 15 UTC
Vento 7 kt da sud-ovest
Poco nuvoloso ad un'altezza di 1000 ft
Nubi sparse ad un'altezza di 5000 ft
Nuvoloso ad un'altezza di 8000 ft

TAF: LOXA 271115Z 2712/2721 VRB03KT 9999 FEW030 SCT050 TEMPO 2712/2715 23007KT FEW010 SCT050 BKN080

Osservazioni e previsioni meteorologiche di più di 4000 aeroporti (messaggi METAR e TAF).

Le stazioni disponibili sono rappresentate dai dischi gialli e rossi sulla carta.

Puntare il mouse per vedere il nome della stazione.

Clicca sopra per visualizzare le osservazioni e previsioni meteorologiche.

Per cambiare la mappa : fare clic sui pulsanti verdi con una croce nera per ingrandire, il pulsante verde con un trattino per diminuire, o sulla freccia verde per le mappe adiacenti.


METAR-TAF: